Time;durP1;ratioP1;P1;durP2;ratioP2;P2;SDS_P1;SDS_P2;PMS_P1;PMS_P2;Temp;Humidity;BMP_temperature;BMP_pressure;BME280_temperature;BME280_humidity;BME280_pressure;Samples;Min_cycle;Max_cycle;Signal;HPM_P1;HPM_P2
2021/06/10 00:02:10;;;;;;;5.82;2.08;;;;;;;;;;5060840;28;20051;-56
2021/06/10 00:04:36;;;;;;;3.22;1.92;;;;;;;;;;5066287;28;20048;-55
2021/06/10 00:07:03;;;;;;;4.68;2.22;;;;;;;;;;5096404;28;20036;-55
2021/06/10 00:09:29;;;;;;;6.07;2.40;;;;;;;;;;5048764;28;20083;-57
2021/06/10 00:11:57;;;;;;;4.25;2.10;;;;;;;;;;5084330;28;20057;-51
2021/06/10 00:14:23;;;;;;;6.57;2.45;;;;;;;;;;5076379;28;20041;-56
2021/06/10 00:16:49;;;;;;;4.70;2.42;;;;;;;;;;5082486;28;20036;-52
2021/06/10 00:19:15;;;;;;;5.38;2.50;;;;;;;;;;5080317;28;20048;-56
2021/06/10 00:21:41;;;;;;;4.80;2.45;;;;;;;;;;5066398;28;20097;-57
2021/06/10 00:24:07;;;;;;;4.18;2.10;;;;;;;;;;5062477;28;20036;-56
2021/06/10 00:26:44;;;;;;;4.57;2.33;;;;;;;;;;5067101;28;20032;-57
2021/06/10 00:29:11;;;;;;;8.90;2.70;;;;;;;;;;5062477;28;20088;-57
2021/06/10 00:31:38;;;;;;;12.18;2.47;;;;;;;;;;5083944;28;20040;-58
2021/06/10 00:34:04;;;;;;;5.95;2.50;;;;;;;;;;5062136;28;20047;-54
2021/06/10 00:36:30;;;;;;;4.28;2.50;;;;;;;;;;5065993;28;20040;-54
2021/06/10 00:38:56;;;;;;;4.70;2.35;;;;;;;;;;5078150;28;20065;-55
2021/06/10 00:41:22;;;;;;;3.63;2.08;;;;;;;;;;5065338;28;20047;-56
2021/06/10 00:43:48;;;;;;;3.67;1.98;;;;;;;;;;5079631;28;20028;-57
2021/06/10 00:46:16;;;;;;;4.78;2.33;;;;;;;;;;5065436;28;20056;-56
2021/06/10 00:48:42;;;;;;;7.38;2.80;;;;;;;;;;5080048;28;20036;-55
2021/06/10 00:51:10;;;;;;;5.93;2.60;;;;;;;;;;5063983;28;20116;-57
2021/06/10 00:53:36;;;;;;;9.93;3.00;;;;;;;;;;5082923;28;20098;-57
2021/06/10 00:56:04;;;;;;;6.00;2.58;;;;;;;;;;5060915;28;20044;-54
2021/06/10 00:58:31;;;;;;;7.10;2.83;;;;;;;;;;5097525;28;20032;-57
2021/06/10 01:00:57;;;;;;;8.95;3.33;;;;;;;;;;5060532;28;20055;-53
2021/06/10 01:03:24;;;;;;;6.45;2.95;;;;;;;;;;5063715;28;20056;-55
2021/06/10 01:05:52;;;;;;;8.63;3.13;;;;;;;;;;5060226;28;20047;-55
2021/06/10 01:08:24;;;;;;;8.65;2.80;;;;;;;;;;5064138;28;20056;-57
2021/06/10 01:10:54;;;;;;;7.57;3.38;;;;;;;;;;5060777;28;20048;-56
2021/06/10 01:13:25;;;;;;;7.03;2.88;;;;;;;;;;5097898;28;20056;-56
2021/06/10 01:15:54;;;;;;;6.85;2.95;;;;;;;;;;5060053;28;20036;-55
2021/06/10 01:18:21;;;;;;;6.15;2.92;;;;;;;;;;5081510;28;20040;-57
2021/06/10 01:20:48;;;;;;;10.20;3.20;;;;;;;;;;5059016;28;20032;-53
2021/06/10 01:23:20;;;;;;;6.60;3.08;;;;;;;;;;5098248;28;20044;-58
2021/06/10 01:25:50;;;;;;;8.57;3.10;;;;;;;;;;5078086;28;20033;-55
2021/06/10 01:28:20;;;;;;;7.22;3.05;;;;;;;;;;5065278;28;20051;-56
2021/06/10 01:30:48;;;;;;;7.55;3.05;;;;;;;;;;5060882;28;20094;-51
2021/06/10 01:33:16;;;;;;;6.93;3.00;;;;;;;;;;5064172;28;20040;-54
2021/06/10 01:35:44;;;;;;;6.13;2.88;;;;;;;;;;5060410;28;20056;-56
2021/06/10 01:38:11;;;;;;;7.40;2.92;;;;;;;;;;5062381;28;20045;-53
2021/06/10 01:40:37;;;;;;;6.38;2.80;;;;;;;;;;5061057;28;20067;-56
2021/06/10 01:43:04;;;;;;;11.43;3.00;;;;;;;;;;5066867;28;20052;-57
2021/06/10 01:45:31;;;;;;;6.85;2.90;;;;;;;;;;5085133;28;20037;-54
2021/06/10 01:47:57;;;;;;;8.23;3.35;;;;;;;;;;5064499;28;20040;-50
2021/06/10 01:50:23;;;;;;;5.80;3.10;;;;;;;;;;5083391;28;20052;-52
2021/06/10 01:52:50;;;;;;;7.35;2.85;;;;;;;;;;5064363;28;20052;-51
2021/06/10 01:55:19;;;;;;;5.85;2.83;;;;;;;;;;5067532;28;20048;-51
2021/06/10 01:57:46;;;;;;;11.00;3.05;;;;;;;;;;5063685;28;20055;-55
2021/06/10 02:00:13;;;;;;;6.35;2.97;;;;;;;;;;5068262;28;20044;-54
2021/06/10 02:02:41;;;;;;;5.28;2.63;;;;;;;;;;5069985;28;20052;-58
2021/06/10 02:05:09;;;;;;;8.80;2.78;;;;;;;;;;5084470;28;20040;-58
2021/06/10 02:07:36;;;;;;;8.55;3.08;;;;;;;;;;5063146;28;20110;-52
2021/06/10 02:10:03;;;;;;;6.50;2.58;;;;;;;;;;5099320;28;20089;-58
2021/06/10 02:12:29;;;;;;;6.15;2.70;;;;;;;;;;5062264;28;20035;-54
2021/06/10 02:14:55;;;;;;;4.80;2.72;;;;;;;;;;5083815;28;20029;-53
2021/06/10 02:17:21;;;;;;;8.32;2.70;;;;;;;;;;5080485;28;20056;-58
2021/06/10 02:19:49;;;;;;;6.93;2.83;;;;;;;;;;5083823;28;20055;-55
2021/06/10 02:22:15;;;;;;;6.32;2.72;;;;;;;;;;5097839;28;20034;-59
2021/06/10 02:24:41;;;;;;;8.00;2.50;;;;;;;;;;5083720;28;20097;-56
2021/06/10 02:27:07;;;;;;;5.22;2.47;;;;;;;;;;5065599;28;20053;-51
2021/06/10 02:29:33;;;;;;;5.43;2.80;;;;;;;;;;5060111;28;20179;-55
2021/06/10 02:31:59;;;;;;;7.50;2.78;;;;;;;;;;5100198;28;20033;-52
2021/06/10 02:34:25;;;;;;;8.68;2.67;;;;;;;;;;5063000;28;20048;-52
2021/06/10 02:36:53;;;;;;;7.43;2.70;;;;;;;;;;5067199;28;20052;-50
2021/06/10 02:39:19;;;;;;;6.07;2.47;;;;;;;;;;5058089;28;20114;-50
2021/06/10 02:41:49;;;;;;;5.47;2.40;;;;;;;;;;5064293;28;20335;-50
2021/06/10 02:44:15;;;;;;;5.90;2.20;;;;;;;;;;5088133;28;20055;-49
2021/06/10 02:46:43;;;;;;;5.95;2.45;;;;;;;;;;5082769;28;20044;-55
2021/06/10 02:49:10;;;;;;;6.38;2.50;;;;;;;;;;5063303;28;20051;-57
2021/06/10 02:51:36;;;;;;;8.52;2.70;;;;;;;;;;5065169;28;20036;-58
2021/06/10 02:54:04;;;;;;;5.38;2.70;;;;;;;;;;5081345;28;20032;-53
2021/06/10 02:56:31;;;;;;;7.15;2.28;;;;;;;;;;5066008;28;20047;-53
2021/06/10 02:59:00;;;;;;;8.07;2.60;;;;;;;;;;5062073;28;20036;-54
2021/06/10 03:01:26;;;;;;;6.70;2.60;;;;;;;;;;5100500;28;20096;-53
2021/06/10 03:03:52;;;;;;;4.43;2.50;;;;;;;;;;5063250;28;20037;-56
2021/06/10 03:06:19;;;;;;;4.93;2.50;;;;;;;;;;5067296;28;20040;-55
2021/06/10 03:08:48;;;;;;;6.28;2.78;;;;;;;;;;5084984;28;20067;-55
2021/06/10 03:11:15;;;;;;;6.97;2.40;;;;;;;;;;5062551;28;20048;-57
2021/06/10 03:13:41;;;;;;;4.18;2.47;;;;;;;;;;5084025;28;20132;-55
2021/06/10 03:16:07;;;;;;;7.05;3.10;;;;;;;;;;5074237;28;20056;-54
2021/06/10 03:18:34;;;;;;;5.25;2.47;;;;;;;;;;5083413;28;20044;-56
2021/06/10 03:21:00;;;;;;;8.27;2.33;;;;;;;;;;5065375;28;20055;-57
2021/06/10 03:23:27;;;;;;;6.25;2.63;;;;;;;;;;5062801;28;20045;-55
2021/06/10 03:25:54;;;;;;;7.43;2.90;;;;;;;;;;5077539;28;20072;-55
2021/06/10 03:28:22;;;;;;;8.98;2.60;;;;;;;;;;5066125;28;20033;-56
2021/06/10 03:30:48;;;;;;;4.50;2.30;;;;;;;;;;5062826;28;20044;-57
2021/06/10 03:33:14;;;;;;;8.65;2.58;;;;;;;;;;5066961;28;20055;-57
2021/06/10 03:35:40;;;;;;;4.18;2.25;;;;;;;;;;5080087;28;20048;-53
2021/06/10 03:38:06;;;;;;;6.72;2.78;;;;;;;;;;5068459;28;20200;-58
2021/06/10 03:40:32;;;;;;;8.13;3.03;;;;;;;;;;5063543;28;20036;-54
2021/06/10 03:42:58;;;;;;;5.97;2.80;;;;;;;;;;5100975;28;20040;-55
2021/06/10 03:45:27;;;;;;;8.30;2.60;;;;;;;;;;5064021;28;20058;-54
2021/06/10 03:47:54;;;;;;;6.10;2.67;;;;;;;;;;5061481;28;20040;-54
2021/06/10 03:50:20;;;;;;;7.13;2.63;;;;;;;;;;5078709;28;20107;-55
2021/06/10 03:52:46;;;;;;;4.93;2.55;;;;;;;;;;5060088;28;20084;-54
2021/06/10 03:55:12;;;;;;;8.50;2.63;;;;;;;;;;5083867;28;20036;-55
2021/06/10 03:57:39;;;;;;;10.85;2.25;;;;;;;;;;5061688;28;20058;-56
2021/06/10 04:00:07;;;;;;;9.57;2.55;;;;;;;;;;5064415;28;20051;-55
2021/06/10 04:02:34;;;;;;;6.38;2.42;;;;;;;;;;5095895;28;20053;-58
2021/06/10 04:05:00;;;;;;;6.28;2.85;;;;;;;;;;5064909;28;20044;-54
2021/06/10 04:07:27;;;;;;;7.10;2.50;;;;;;;;;;5080010;28;20040;-54
2021/06/10 04:09:53;;;;;;;7.10;2.55;;;;;;;;;;5064829;28;20040;-54
2021/06/10 04:12:19;;;;;;;6.53;2.75;;;;;;;;;;5061654;28;20055;-53
2021/06/10 04:14:45;;;;;;;7.60;2.67;;;;;;;;;;5066254;28;20101;-57
2021/06/10 04:17:12;;;;;;;5.85;2.88;;;;;;;;;;5062827;28;20044;-54
2021/06/10 04:19:39;;;;;;;6.03;2.70;;;;;;;;;;5066107;28;20044;-58
2021/06/10 04:22:05;;;;;;;10.70;2.92;;;;;;;;;;5062200;28;20055;-49
2021/06/10 04:24:31;;;;;;;8.57;2.97;;;;;;;;;;5064939;28;20048;-55
2021/06/10 04:26:57;;;;;;;6.72;3.05;;;;;;;;;;5065725;28;20032;-54
2021/06/10 04:29:23;;;;;;;5.88;2.67;;;;;;;;;;5043579;28;20059;-52
2021/06/10 04:31:49;;;;;;;10.43;3.05;;;;;;;;;;5044236;28;20049;-52
2021/06/10 04:34:16;;;;;;;5.85;3.05;;;;;;;;;;5060484;28;20036;-52
2021/06/10 04:36:44;;;;;;;7.85;2.90;;;;;;;;;;5066372;28;20036;-49
2021/06/10 04:39:10;;;;;;;;;;;;;;;;;;5053153;28;20082;-54
2021/06/10 04:41:36;;;;;;;5.55;2.95;;;;;;;;;;5077103;28;20024;-49
2021/06/10 04:44:02;;;;;;;7.88;3.30;;;;;;;;;;5040733;28;20037;-53
2021/06/10 04:46:29;;;;;;;11.82;3.58;;;;;;;;;;5044855;28;20037;-52
2021/06/10 04:48:56;;;;;;;9.07;3.88;;;;;;;;;;5042288;28;20084;-56
2021/06/10 04:51:22;;;;;;;7.35;3.40;;;;;;;;;;5046216;28;20041;-58
2021/06/10 04:53:50;;;;;;;10.38;4.28;;;;;;;;;;5041907;28;20058;-56
2021/06/10 04:56:18;;;;;;;7.10;4.00;;;;;;;;;;5078420;28;20040;-59
2021/06/10 04:58:45;;;;;;;9.65;4.88;;;;;;;;;;5059601;28;20285;-58
2021/06/10 05:01:11;;;;;;;11.80;5.15;;;;;;;;;;5044185;28;20044;-59
2021/06/10 05:03:37;;;;;;;13.20;5.78;;;;;;;;;;5067751;28;20065;-54
2021/06/10 05:06:03;;;;;;;11.98;5.85;;;;;;;;;;5047144;28;20039;-60
2021/06/10 05:08:29;;;;;;;31.38;16.15;;;;;;;;;;5078389;28;20037;-61
2021/06/10 05:10:56;;;;;;;18.88;10.05;;;;;;;;;;5061622;28;20051;-55
2021/06/10 05:13:22;;;;;;;15.38;7.50;;;;;;;;;;5044339;28;20064;-59
2021/06/10 05:15:48;;;;;;;14.40;6.75;;;;;;;;;;5043573;28;20036;-57
2021/06/10 05:18:20;;;;;;;12.18;6.53;;;;;;;;;;5050837;28;20033;-55
2021/06/10 05:20:46;;;;;;;13.82;7.18;;;;;;;;;;5044942;28;20045;-55
2021/06/10 05:23:12;;;;;;;12.68;6.82;;;;;;;;;;5049928;28;20036;-57
2021/06/10 05:25:38;;;;;;;13.68;7.07;;;;;;;;;;5062412;28;20045;-55
2021/06/10 05:28:08;;;;;;;12.27;6.85;;;;;;;;;;5047337;28;20133;-56
2021/06/10 05:30:34;;;;;;;13.43;7.15;;;;;;;;;;5059652;28;20117;-55
2021/06/10 05:33:00;;;;;;;15.02;6.85;;;;;;;;;;5047675;28;20037;-54
2021/06/10 05:35:26;;;;;;;19.75;7.40;;;;;;;;;;5043334;28;20085;-54
2021/06/10 05:37:53;;;;;;;16.23;6.78;;;;;;;;;;5046715;28;20059;-54
2021/06/10 05:40:22;;;;;;;15.10;7.28;;;;;;;;;;5053375;28;20067;-55
2021/06/10 05:42:48;;;;;;;12.20;6.93;;;;;;;;;;5077073;28;20068;-57
2021/06/10 05:45:16;;;;;;;13.88;6.63;;;;;;;;;;5062858;28;20044;-56
2021/06/10 05:47:43;;;;;;;15.32;7.38;;;;;;;;;;5066343;28;20060;-56
2021/06/10 05:50:09;;;;;;;19.38;7.28;;;;;;;;;;5067100;28;20055;-58
2021/06/10 05:52:35;;;;;;;15.77;8.10;;;;;;;;;;5062596;28;20040;-56
2021/06/10 05:55:08;;;;;;;19.73;7.28;;;;;;;;;;5068303;28;20094;-56
2021/06/10 05:57:34;;;;;;;21.48;10.65;;;;;;;;;;5091365;27;20058;-56
2021/06/10 06:00:00;;;;;;;26.10;14.52;;;;;;;;;;5086526;28;20051;-55
2021/06/10 06:02:27;;;;;;;25.38;12.32;;;;;;;;;;5082109;28;20079;-55
2021/06/10 06:04:53;;;;;;;19.35;8.95;;;;;;;;;;5067323;28;20037;-53
2021/06/10 06:07:20;;;;;;;16.90;9.57;;;;;;;;;;5082153;28;20029;-53
2021/06/10 06:09:46;;;;;;;16.20;8.65;;;;;;;;;;5094684;27;20062;-55
2021/06/10 06:12:14;;;;;;;17.02;8.32;;;;;;;;;;5092918;27;20052;-54
2021/06/10 06:14:42;;;;;;;16.00;7.80;;;;;;;;;;5069989;28;20098;-53
2021/06/10 06:17:11;;;;;;;15.90;7.43;;;;;;;;;;5081723;28;20044;-55
2021/06/10 06:19:39;;;;;;;13.88;8.00;;;;;;;;;;5072100;28;20135;-53
2021/06/10 06:22:05;;;;;;;32.27;8.43;;;;;;;;;;5076312;28;20044;-54
2021/06/10 06:24:32;;;;;;;20.83;7.97;;;;;;;;;;5084502;28;20041;-54
2021/06/10 06:26:58;;;;;;;19.63;7.65;;;;;;;;;;5062263;28;20052;-57
2021/06/10 06:29:24;;;;;;;12.90;7.65;;;;;;;;;;5066879;28;20029;-54
2021/06/10 06:31:50;;;;;;;15.10;7.68;;;;;;;;;;5097935;28;20276;-56
2021/06/10 06:34:16;;;;;;;17.42;7.13;;;;;;;;;;5064453;28;20044;-57
2021/06/10 06:36:45;;;;;;;13.85;7.43;;;;;;;;;;5067387;28;20029;-56
2021/06/10 06:39:11;;;;;;;12.07;6.93;;;;;;;;;;5080065;28;20036;-56
2021/06/10 06:41:37;;;;;;;12.85;6.53;;;;;;;;;;5065551;28;20051;-58
2021/06/10 06:44:03;;;;;;;17.85;6.85;;;;;;;;;;5064268;28;20136;-57
2021/06/10 06:46:31;;;;;;;13.90;6.85;;;;;;;;;;5085489;28;20039;-54
2021/06/10 06:48:57;;;;;;;10.85;5.85;;;;;;;;;;5063102;28;20088;-57
2021/06/10 06:51:23;;;;;;;11.77;6.53;;;;;;;;;;5102087;28;20053;-53
2021/06/10 06:53:50;;;;;;;14.55;7.15;;;;;;;;;;5062039;28;20060;-58
2021/06/10 06:56:17;;;;;;;15.57;6.67;;;;;;;;;;5066975;28;20076;-57
2021/06/10 06:58:43;;;;;;;13.27;6.53;;;;;;;;;;5096217;28;20047;-57
2021/06/10 07:01:09;;;;;;;9.57;5.90;;;;;;;;;;5066129;28;20047;-57
2021/06/10 07:03:35;;;;;;;15.95;6.47;;;;;;;;;;5063139;28;20040;-53
2021/06/10 07:06:01;;;;;;;10.55;6.00;;;;;;;;;;5083641;28;20040;-54
2021/06/10 07:08:29;;;;;;;16.02;6.40;;;;;;;;;;5062755;28;20044;-56
2021/06/10 07:10:59;;;;;;;10.20;5.75;;;;;;;;;;5066362;28;20089;-55
2021/06/10 07:13:25;;;;;;;14.55;7.90;;;;;;;;;;5098819;28;20075;-55
2021/06/10 07:15:51;;;;;;;12.60;7.25;;;;;;;;;;5062976;28;20059;-58
2021/06/10 07:18:18;;;;;;;13.50;6.80;;;;;;;;;;5064424;28;20036;-58
2021/06/10 07:20:44;;;;;;;12.13;6.28;;;;;;;;;;5094635;28;20033;-54
2021/06/10 07:23:10;;;;;;;13.02;5.57;;;;;;;;;;5065140;28;20051;-54
2021/06/10 07:25:36;;;;;;;11.00;5.97;;;;;;;;;;5062016;28;20142;-54
2021/06/10 07:28:04;;;;;;;11.73;6.00;;;;;;;;;;5066331;28;20024;-57
2021/06/10 07:30:30;;;;;;;13.05;5.70;;;;;;;;;;5061308;28;20097;-54
2021/06/10 07:32:56;;;;;;;11.50;6.60;;;;;;;;;;5068875;28;20032;-57
2021/06/10 07:35:22;;;;;;;11.85;5.90;;;;;;;;;;5066110;28;20098;-54
2021/06/10 07:37:49;;;;;;;11.68;5.68;;;;;;;;;;5097182;28;20115;-55
2021/06/10 07:40:15;;;;;;;8.30;4.40;;;;;;;;;;5057847;28;20037;-54
2021/06/10 07:42:41;;;;;;;7.95;4.32;;;;;;;;;;5061954;28;20053;-55
2021/06/10 07:45:09;;;;;;;9.82;4.70;;;;;;;;;;5058984;28;20123;-56
2021/06/10 07:47:37;;;;;;;19.38;9.05;;;;;;;;;;5062607;28;20048;-54
2021/06/10 07:50:04;;;;;;;14.23;5.90;;;;;;;;;;5058333;28;20053;-51
2021/06/10 07:52:31;;;;;;;9.52;4.95;;;;;;;;;;5064133;28;20048;-59
2021/06/10 07:54:57;;;;;;;8.25;3.80;;;;;;;;;;5062966;28;20043;-54
2021/06/10 07:57:28;;;;;;;6.70;3.50;;;;;;;;;;5060469;28;20037;-55
2021/06/10 07:59:54;;;;;;;10.13;5.03;;;;;;;;;;5063018;28;20048;-55
2021/06/10 08:02:23;;;;;;;12.25;5.35;;;;;;;;;;5057366;28;20059;-55
2021/06/10 08:04:50;;;;;;;10.77;4.75;;;;;;;;;;5062052;28;20024;-58
2021/06/10 08:07:16;;;;;;;6.63;3.03;;;;;;;;;;5074674;28;20041;-58
2021/06/10 08:09:42;;;;;;;10.02;2.90;;;;;;;;;;5062517;28;20061;-58
2021/06/10 08:12:08;;;;;;;5.63;2.60;;;;;;;;;;5058265;28;20080;-57
2021/06/10 08:14:34;;;;;;;10.68;3.55;;;;;;;;;;5060514;28;20033;-58
2021/06/10 08:17:00;;;;;;;13.82;3.40;;;;;;;;;;5058877;28;20048;-57
2021/06/10 08:19:28;;;;;;;18.05;3.40;;;;;;;;;;5061023;28;20059;-56
2021/06/10 08:21:54;;;;;;;5.97;2.80;;;;;;;;;;5061048;28;20033;-57
2021/06/10 08:24:20;;;;;;;8.43;3.28;;;;;;;;;;5064973;28;20076;-59
2021/06/10 08:26:49;;;;;;;7.07;2.85;;;;;;;;;;5075804;28;20049;-58
2021/06/10 08:29:15;;;;;;;8.95;2.22;;;;;;;;;;5064860;28;20037;-56
2021/06/10 08:31:41;;;;;;;10.18;3.33;;;;;;;;;;5057510;28;20040;-55
2021/06/10 08:34:07;;;;;;;10.52;2.95;;;;;;;;;;5061624;28;20049;-57
2021/06/10 08:36:35;;;;;;;5.18;2.55;;;;;;;;;;5079138;28;20037;-56
2021/06/10 08:39:01;;;;;;;8.65;2.92;;;;;;;;;;5056602;28;20171;-58
2021/06/10 08:41:27;;;;;;;6.40;2.70;;;;;;;;;;5077804;28;20049;-58
2021/06/10 08:43:53;;;;;;;13.30;3.40;;;;;;;;;;5054667;28;20047;-54
2021/06/10 08:46:22;;;;;;;10.35;3.22;;;;;;;;;;5059927;28;20044;-57
2021/06/10 08:48:49;;;;;;;7.05;2.92;;;;;;;;;;5056262;28;20129;-57
2021/06/10 08:51:15;;;;;;;10.20;4.90;;;;;;;;;;5058747;28;20048;-58
2021/06/10 08:53:43;;;;;;;9.77;4.30;;;;;;;;;;5056414;28;20049;-56
2021/06/10 08:56:09;;;;;;;13.43;3.85;;;;;;;;;;5059618;28;20041;-57
2021/06/10 08:58:35;;;;;;;8.35;2.60;;;;;;;;;;5080665;28;20045;-59
2021/06/10 09:01:01;;;;;;;8.98;3.60;;;;;;;;;;5096253;28;20040;-54
2021/06/10 09:03:29;;;;;;;10.13;2.58;;;;;;;;;;5071299;28;20107;-57
2021/06/10 09:06:02;;;;;;;8.27;2.90;;;;;;;;;;5061838;28;20052;-58
2021/06/10 09:08:28;;;;;;;7.43;2.80;;;;;;;;;;5057625;28;20052;-58
2021/06/10 09:11:03;;;;;;;6.25;2.15;;;;;;;;;;5061648;28;20029;-58
2021/06/10 09:13:37;;;;;;;4.82;2.47;;;;;;;;;;5059199;28;20060;-58
2021/06/10 09:16:15;;;;;;;6.03;3.00;;;;;;;;;;5062992;28;20065;-58
2021/06/10 09:18:48;;;;;;;9.20;2.50;;;;;;;;;;5058743;28;20056;-57
2021/06/10 09:21:22;;;;;;;7.65;2.67;;;;;;;;;;5060596;28;20041;-58
2021/06/10 09:23:49;;;;;;;8.65;3.17;;;;;;;;;;5058957;28;20068;-58
2021/06/10 09:26:17;;;;;;;7.32;2.85;;;;;;;;;;5061401;28;20106;-58
2021/06/10 09:28:45;;;;;;;6.93;2.58;;;;;;;;;;5059662;28;20041;-56
2021/06/10 09:31:11;;;;;;;12.32;2.90;;;;;;;;;;5058581;28;20049;-58
2021/06/10 09:33:39;;;;;;;8.02;2.70;;;;;;;;;;5060940;28;20060;-57
2021/06/10 09:36:05;;;;;;;6.53;3.05;;;;;;;;;;5048408;28;20053;-59
2021/06/10 09:38:31;;;;;;;7.68;3.13;;;;;;;;;;5064070;28;20044;-59
2021/06/10 09:41:02;;;;;;;7.88;3.45;;;;;;;;;;5076949;28;20056;-57
2021/06/10 09:43:43;;;;;;;7.75;3.53;;;;;;;;;;5081961;28;20043;-59
2021/06/10 09:46:09;;;;;;;9.57;4.55;;;;;;;;;;5057291;28;20029;-58
2021/06/10 09:48:35;;;;;;;8.90;4.25;;;;;;;;;;5043841;28;20049;-59
2021/06/10 09:51:02;;;;;;;9.18;4.10;;;;;;;;;;5052813;28;20089;-59
2021/06/10 09:53:29;;;;;;;7.70;3.90;;;;;;;;;;5062933;28;20025;-58
2021/06/10 09:55:59;;;;;;;9.63;4.05;;;;;;;;;;5094379;28;20041;-59
2021/06/10 09:58:26;;;;;;;8.73;4.03;;;;;;;;;;5063286;28;20082;-59
2021/06/10 10:00:57;;;;;;;8.05;3.17;;;;;;;;;;5060009;28;20032;-58
2021/06/10 10:03:29;;;;;;;9.50;3.65;;;;;;;;;;5068270;28;20032;-58
2021/06/10 10:05:57;;;;;;;8.30;4.07;;;;;;;;;;5066336;28;20036;-59
2021/06/10 10:08:24;;;;;;;;;;;;;;;;;;5103196;28;20040;-57
2021/06/10 10:10:50;;;;;;;6.47;3.55;;;;;;;;;;5062075;28;19924;-59
2021/06/10 10:13:17;;;;;;;8.38;3.03;;;;;;;;;;5084838;28;20048;-59
2021/06/10 10:15:44;;;;;;;12.55;6.60;;;;;;;;;;5060678;28;20077;-58
2021/06/10 10:18:12;;;;;;;13.18;7.55;;;;;;;;;;5065640;28;20088;-57
2021/06/10 10:20:38;;;;;;;9.73;3.90;;;;;;;;;;5065565;28;20041;-59
2021/06/10 10:23:04;;;;;;;7.35;4.07;;;;;;;;;;5095677;28;20036;-57
2021/06/10 10:25:30;;;;;;;7.15;3.63;;;;;;;;;;5065831;28;20041;-58
2021/06/10 10:27:57;;;;;;;8.50;4.43;;;;;;;;;;5079838;28;20048;-57
2021/06/10 10:30:23;;;;;;;8.30;3.75;;;;;;;;;;5083011;28;20052;-59
2021/06/10 10:32:49;;;;;;;12.75;3.67;;;;;;;;;;5094925;28;20055;-59
2021/06/10 10:35:27;;;;;;;5.18;3.13;;;;;;;;;;5098786;28;20040;-59
2021/06/10 10:37:54;;;;;;;10.18;3.30;;;;;;;;;;5080736;28;20058;-56
2021/06/10 10:40:20;;;;;;;5.30;2.63;;;;;;;;;;5084477;28;20028;-58
2021/06/10 10:42:48;;;;;;;6.47;3.35;;;;;;;;;;5081755;28;20044;-58
2021/06/10 10:45:18;;;;;;;8.77;3.33;;;;;;;;;;5084911;28;20044;-57
2021/06/10 10:47:45;;;;;;;7.18;3.50;;;;;;;;;;5061935;28;20041;-58
2021/06/10 10:50:17;;;;;;;8.32;3.72;;;;;;;;;;5066259;28;20044;-58
2021/06/10 10:52:55;;;;;;;8.35;4.00;;;;;;;;;;5095680;28;20109;-58
2021/06/10 10:55:27;;;;;;;7.88;3.58;;;;;;;;;;5066508;28;20051;-59
2021/06/10 10:58:01;;;;;;;5.50;3.08;;;;;;;;;;5062042;28;20052;-57
2021/06/10 11:00:47;;;;;;;6.00;3.28;;;;;;;;;;5066358;28;20097;-57
2021/06/10 11:03:17;;;;;;;5.43;2.72;;;;;;;;;;5080274;28;20040;-58
2021/06/10 11:05:43;;;;;;;7.63;3.47;;;;;;;;;;5066092;28;20043;-57
2021/06/10 11:08:14;;;;;;;10.38;5.00;;;;;;;;;;5080749;28;20036;-58
2021/06/10 11:10:57;;;;;;;10.30;6.15;;;;;;;;;;5066527;28;20098;-58
2021/06/10 11:13:23;;;;;;;8.00;3.33;;;;;;;;;;5078579;28;20048;-59
2021/06/10 11:15:50;;;;;;;10.20;3.50;;;;;;;;;;5084062;28;20129;-59
2021/06/10 11:18:31;;;;;;;5.97;3.03;;;;;;;;;;5063107;28;20130;-59
2021/06/10 11:20:57;;;;;;;8.18;3.72;;;;;;;;;;5087997;28;20064;-60
2021/06/10 11:23:26;;;;;;;6.93;3.50;;;;;;;;;;5093679;28;20040;-58
2021/06/10 11:25:53;;;;;;;6.47;3.35;;;;;;;;;;5064397;28;20051;-59
2021/06/10 11:28:21;;;;;;;5.70;2.65;;;;;;;;;;5082730;28;20044;-59
2021/06/10 11:30:48;;;;;;;6.72;2.92;;;;;;;;;;5076836;28;20071;-60
2021/06/10 11:33:22;;;;;;;8.80;3.28;;;;;;;;;;5083101;28;20052;-59
2021/06/10 11:35:49;;;;;;;5.88;3.08;;;;;;;;;;5062740;28;20146;-59
2021/06/10 11:38:17;;;;;;;5.55;2.70;;;;;;;;;;5084393;28;20036;-59
2021/06/10 11:40:48;;;;;;;9.55;3.67;;;;;;;;;;5096490;28;20044;-60
2021/06/10 11:43:15;;;;;;;9.30;3.28;;;;;;;;;;5082599;28;20094;-60
2021/06/10 11:45:42;;;;;;;6.30;3.07;;;;;;;;;;5069670;28;20059;-60
2021/06/10 11:48:08;;;;;;;7.55;4.30;;;;;;;;;;5065989;28;20297;-59
2021/06/10 11:50:35;;;;;;;6.25;3.40;;;;;;;;;;5062185;28;20051;-59
2021/06/10 11:53:02;;;;;;;13.18;2.53;;;;;;;;;;5065698;28;20092;-59
2021/06/10 11:55:29;;;;;;;8.65;3.30;;;;;;;;;;5062414;28;20048;-59
2021/06/10 11:57:58;;;;;;;9.27;4.00;;;;;;;;;;5066350;28;20036;-59
2021/06/10 12:00:28;;;;;;;8.82;4.38;;;;;;;;;;5078436;28;20040;-59
2021/06/10 12:02:55;;;;;;;8.18;3.97;;;;;;;;;;5065982;28;20036;-58
2021/06/10 12:05:21;;;;;;;7.18;3.47;;;;;;;;;;5061175;28;20040;-58
2021/06/10 12:07:48;;;;;;;8.85;3.17;;;;;;;;;;5065997;28;20044;-59
2021/06/10 12:10:14;;;;;;;7.32;3.85;;;;;;;;;;5060779;28;20032;-60
2021/06/10 12:12:42;;;;;;;6.05;2.50;;;;;;;;;;5063926;28;20047;-59
2021/06/10 12:15:28;;;;;;;9.75;3.20;;;;;;;;;;5099149;28;20036;-59
2021/06/10 12:17:55;;;;;;;7.70;3.30;;;;;;;;;;5043310;28;20045;-59
2021/06/10 12:20:23;;;;;;;6.90;3.45;;;;;;;;;;5044991;28;20130;-59
2021/06/10 12:22:49;;;;;;;10.40;4.32;;;;;;;;;;5079991;28;20036;-59
2021/06/10 12:25:17;;;;;;;13.48;3.78;;;;;;;;;;5063806;28;20040;-59
2021/06/10 12:27:44;;;;;;;8.25;3.83;;;;;;;;;;5060752;28;20044;-59
2021/06/10 12:30:22;;;;;;;9.50;4.60;;;;;;;;;;5098228;28;20040;-59
2021/06/10 12:32:48;;;;;;;13.90;3.97;;;;;;;;;;5061244;28;20051;-60
2021/06/10 12:35:14;;;;;;;13.60;4.18;;;;;;;;;;5065564;28;20040;-59
2021/06/10 12:37:40;;;;;;;7.63;3.97;;;;;;;;;;5094625;28;20033;-58
2021/06/10 12:40:07;;;;;;;9.38;5.75;;;;;;;;;;5085117;28;20036;-61
2021/06/10 12:42:33;;;;;;;11.00;3.83;;;;;;;;;;5080295;28;20040;-60
2021/06/10 12:44:59;;;;;;;8.55;4.10;;;;;;;;;;5098589;28;20047;-59
2021/06/10 12:47:51;;;;;;;8.02;3.50;;;;;;;;;;5060584;28;20028;-60
2021/06/10 12:50:21;;;;;;;6.70;3.90;;;;;;;;;;5064659;28;20072;-60
2021/06/10 12:52:47;;;;;;;6.68;3.53;;;;;;;;;;5079967;28;20036;-60
2021/06/10 12:55:13;;;;;;;9.90;5.45;;;;;;;;;;5097923;28;20044;-59
2021/06/10 12:57:39;;;;;;;6.50;3.30;;;;;;;;;;5075833;28;20041;-59
2021/06/10 13:00:07;;;;;;;9.35;4.40;;;;;;;;;;5097574;28;20036;-59
2021/06/10 13:02:35;;;;;;;9.57;4.03;;;;;;;;;;5060044;28;20035;-59
2021/06/10 13:05:12;;;;;;;8.45;4.50;;;;;;;;;;5097444;28;20049;-58
2021/06/10 13:07:39;;;;;;;10.23;4.50;;;;;;;;;;5051460;28;20060;-58
2021/06/10 13:10:06;;;;;;;9.95;4.97;;;;;;;;;;5081693;28;20056;-58
2021/06/10 13:12:33;;;;;;;9.32;4.60;;;;;;;;;;5094823;28;20114;-58
2021/06/10 13:15:10;;;;;;;9.10;4.23;;;;;;;;;;5081929;28;20052;-59
2021/06/10 13:17:51;;;;;;;8.45;3.95;;;;;;;;;;5096373;28;20291;-59
2021/06/10 13:20:32;;;;;;;11.13;4.25;;;;;;;;;;5060950;28;20097;-59
2021/06/10 13:23:00;;;;;;;10.48;5.15;;;;;;;;;;5061746;28;20029;-59
2021/06/10 13:25:25;;;;;;;;;;;;;;;;;;5068028;28;20047;-60
2021/06/10 13:28:07;;;;;;;7.95;3.67;;;;;;;;;;5064409;28;19976;-59
2021/06/10 13:30:33;;;;;;;8.73;4.25;;;;;;;;;;5098426;28;20047;-59
2021/06/10 13:33:00;;;;;;;8.85;4.63;;;;;;;;;;5065478;28;20041;-59
2021/06/10 13:35:27;;;;;;;16.45;4.28;;;;;;;;;;5093643;28;20097;-59
2021/06/10 13:37:54;;;;;;;6.20;3.15;;;;;;;;;;5066409;28;20037;-60
2021/06/10 13:40:20;;;;;;;10.23;3.95;;;;;;;;;;5073546;28;20036;-59
2021/06/10 13:42:50;;;;;;;9.55;3.65;;;;;;;;;;5070854;28;20084;-59
2021/06/10 13:45:18;;;;;;;8.65;3.35;;;;;;;;;;5066080;28;20032;-59
2021/06/10 13:47:47;;;;;;;;;;;;;;;;;;5066496;28;20032;-59
2021/06/10 13:50:14;;;;;;;11.85;4.05;;;;;;;;;;5079831;28;19932;-59
2021/06/10 13:52:41;;;;;;;6.95;3.40;;;;;;;;;;5066329;28;20048;-59
2021/06/10 13:55:07;;;;;;;5.82;3.40;;;;;;;;;;5097121;28;20036;-59
2021/06/10 13:57:33;;;;;;;7.75;3.70;;;;;;;;;;5066990;28;20037;-59
2021/06/10 14:00:00;;;;;;;7.22;3.85;;;;;;;;;;5062213;28;20047;-58
2021/06/10 14:02:27;;;;;;;7.13;3.80;;;;;;;;;;5067196;28;20102;-59
2021/06/10 14:04:53;;;;;;;7.00;3.13;;;;;;;;;;5096782;28;20029;-60
2021/06/10 14:07:21;;;;;;;5.30;2.60;;;;;;;;;;5066627;28;20351;-60
2021/06/10 14:09:47;;;;;;;7.28;3.45;;;;;;;;;;5081421;28;20033;-59
2021/06/10 14:12:13;;;;;;;9.43;4.10;;;;;;;;;;5057093;28;20025;-59
2021/06/10 14:14:39;;;;;;;7.57;3.63;;;;;;;;;;5066644;28;20073;-59
2021/06/10 14:17:06;;;;;;;6.88;3.72;;;;;;;;;;5044816;28;20056;-60
2021/06/10 14:19:32;;;;;;;7.63;3.75;;;;;;;;;;5045098;28;20047;-59
2021/06/10 14:21:58;;;;;;;5.18;2.88;;;;;;;;;;5078140;28;20052;-60
2021/06/10 14:24:25;;;;;;;7.28;2.80;;;;;;;;;;5064959;28;20040;-59
2021/06/10 14:26:52;;;;;;;5.60;2.95;;;;;;;;;;5064029;28;20048;-60
2021/06/10 14:29:28;;;;;;;6.32;3.47;;;;;;;;;;5100852;28;20048;-60
2021/06/10 14:34:38;;;;;;;6.50;3.00;;;;;;;;;;5064879;28;20051;-60
2021/06/10 14:37:04;;;;;;;9.25;4.20;;;;;;;;;;5082125;28;20064;-60
2021/06/10 14:39:32;;;;;;;7.70;4.07;;;;;;;;;;5084676;28;20051;-59
2021/06/10 14:41:58;;;;;;;6.95;4.10;;;;;;;;;;5063376;28;20112;-59
2021/06/10 14:44:24;;;;;;;5.63;3.00;;;;;;;;;;5085600;28;20044;-60
2021/06/10 14:46:50;;;;;;;6.18;3.33;;;;;;;;;;5080078;27;20110;-60